Terminal Aerodrome Forecast
Issued by NWS

Current Version | Previous Version | Text Only | Print | Product List | Glossary Off
Versions: 1 2 3 4 5 6 7 8 9 10 11 12 13 14 15 16 17

000
FTUS41 KPBZ 142320
TAFHLG
TAF
KHLG 142320Z 1500/1524 17004KT P6SM SKC
     FM150900 18006KT P6SM SCT080 WS020/23040KT
     FM151400 20014G28KT P6SM SCT050
     FM152000 24015G30KT P6SM -SHRA OVC035=

USA.gov is the U.S. government's official web portal to all federal, state and local government web resources and services.